Time,TemperatureF,DewpointF,PressureIn,WindDirection,WindDirectionDegrees,WindSpeedMPH,WindSpeedGustMPH,Humidity,HourlyPrecipIn,Conditions,Clouds,dailyrainin,SolarRadiationWatts/m^2,SoftwareType,DateUTC
2013-03-05 00:01:00,41.5,38.2,30.15,North,360,0.0,0.0,88,0.00,,,0.00,0.0,custom,2013-03-05 08:01:00,
2013-03-05 00:06:00,41.3,38.0,30.15,North,360,0.0,0.0,88,0.00,,,0.00,0.0,custom,2013-03-05 08:06:00,
2013-03-05 00:11:00,41.3,38.0,30.15,North,360,0.0,0.0,88,0.00,,,0.00,0.0,custom,2013-03-05 08:11:00,
2013-03-05 00:16:00,41.3,38.0,30.15,North,360,0.0,0.0,88,0.00,,,0.00,0.0,custom,2013-03-05 08:16:00,
2013-03-05 00:21:00,41.2,37.9,30.15,North,360,0.0,0.0,88,0.00,,,0.00,0.0,custom,2013-03-05 08:21:00,
2013-03-05 00:26:00,41.2,37.9,30.15,North,360,0.0,0.0,88,0.00,,,0.00,0.0,custom,2013-03-05 08:26:00,
2013-03-05 00:31:00,41.2,37.9,30.14,North,360,0.0,0.0,88,0.00,,,0.00,0.0,custom,2013-03-05 08:31:00,
2013-03-05 00:36:00,41.1,37.8,30.15,North,360,0.0,0.0,88,0.00,,,0.00,0.0,custom,2013-03-05 08:36:00,
2013-03-05 00:41:00,41.0,37.7,30.14,North,360,0.0,0.0,88,0.00,,,0.00,0.0,custom,2013-03-05 08:41:00,
2013-03-05 00:46:00,40.9,37.6,30.14,North,360,0.0,0.0,88,0.00,,,0.00,0.0,custom,2013-03-05 08:46:00,
2013-03-05 00:51:00,40.9,37.6,30.14,North,360,0.0,0.0,88,0.00,,,0.00,0.0,custom,2013-03-05 08:51:00,
2013-03-05 00:56:00,40.8,37.5,30.14,North,360,0.0,0.0,88,0.00,,,0.00,0.0,custom,2013-03-05 08:56:00,
2013-03-05 01:01:00,40.8,37.5,30.14,North,360,0.0,0.0,88,0.00,,,0.00,0.0,custom,2013-03-05 09:01:00,
2013-03-05 01:11:00,41.0,37.7,30.14,North,360,0.0,0.0,88,0.00,,,0.00,0.0,custom,2013-03-05 09:11:00,
2013-03-05 01:16:00,41.0,37.7,30.15,North,360,0.0,0.0,88,0.00,,,0.00,0.0,custom,2013-03-05 09:16:00,
2013-03-05 01:21:00,41.1,37.8,30.14,North,360,0.0,0.0,88,0.00,,,0.00,0.0,custom,2013-03-05 09:21:00,
2013-03-05 01:26:00,41.1,37.8,30.14,North,360,0.0,0.0,88,0.00,,,0.00,0.0,custom,2013-03-05 09:26:00,
2013-03-05 01:31:00,41.0,37.7,30.14,North,360,0.0,0.0,88,0.00,,,0.00,0.0,custom,2013-03-05 09:31:00,
2013-03-05 01:36:00,41.1,37.8,30.14,North,360,0.0,0.0,88,0.00,,,0.00,0.0,custom,2013-03-05 09:36:00,
2013-03-05 01:41:00,41.1,37.8,30.14,North,360,0.0,0.0,88,0.00,,,0.00,0.0,custom,2013-03-05 09:41:00,
2013-03-05 01:46:00,41.3,38.0,30.14,North,360,0.0,0.0,88,0.00,,,0.00,0.0,custom,2013-03-05 09:46:00,
2013-03-05 01:51:00,41.5,38.2,30.14,North,360,0.0,0.0,88,0.00,,,0.00,0.0,custom,2013-03-05 09:51:00,
2013-03-05 01:56:00,41.8,38.5,30.14,North,360,0.0,0.0,88,0.00,,,0.00,0.0,custom,2013-03-05 09:56:00,
2013-03-05 02:01:00,42.0,38.7,30.15,North,360,0.0,0.0,88,0.00,,,0.00,0.0,custom,2013-03-05 10:01:00,
2013-03-05 02:06:00,42.2,38.9,30.15,North,360,0.0,0.0,88,0.00,,,0.00,0.0,custom,2013-03-05 10:06:00,
2013-03-05 02:11:00,42.4,39.1,30.15,North,360,0.0,0.0,88,0.00,,,0.00,0.0,custom,2013-03-05 10:11:00,
2013-03-05 02:16:00,42.5,39.2,30.14,North,360,0.0,0.0,88,0.00,,,0.00,0.0,custom,2013-03-05 10:16:00,
2013-03-05 02:21:00,42.6,39.3,30.14,North,360,0.0,0.0,88,0.00,,,0.00,0.0,custom,2013-03-05 10:21:00,
2013-03-05 02:26:00,42.9,39.6,30.14,North,360,0.0,0.0,88,0.00,,,0.00,0.0,custom,2013-03-05 10:26:00,
2013-03-05 02:31:00,43.1,39.8,30.14,North,360,0.0,0.0,88,0.00,,,0.00,0.0,custom,2013-03-05 10:31:00,
2013-03-05 02:36:00,43.3,40.0,30.14,North,360,0.0,0.0,88,0.00,,,0.00,0.0,custom,2013-03-05 10:36:00,
2013-03-05 02:41:00,43.4,40.1,30.15,North,360,0.0,0.0,88,0.00,,,0.00,0.0,custom,2013-03-05 10:41:00,
2013-03-05 02:46:00,43.5,40.2,30.15,North,360,0.0,0.0,88,0.00,,,0.00,0.0,custom,2013-03-05 10:46:00,
2013-03-05 02:56:00,43.6,40.3,30.15,North,360,0.0,0.0,88,0.00,,,0.00,0.0,custom,2013-03-05 10:56:00,
2013-03-05 03:01:00,43.6,40.3,30.15,North,360,0.0,0.0,88,0.00,,,0.00,0.0,custom,2013-03-05 11:01:00,
2013-03-05 03:06:00,43.5,40.2,30.14,North,360,0.0,0.0,88,0.00,,,0.00,0.0,custom,2013-03-05 11:06:00,
2013-03-05 03:11:00,43.5,40.2,30.15,North,360,0.0,0.0,88,0.00,,,0.00,0.0,custom,2013-03-05 11:11:00,
2013-03-05 03:16:00,43.5,40.2,30.15,North,360,0.0,0.0,88,0.00,,,0.00,0.0,custom,2013-03-05 11:16:00,
2013-03-05 03:21:00,43.5,40.2,30.15,North,360,0.0,0.0,88,0.00,,,0.00,0.0,custom,2013-03-05 11:21:00,
2013-03-05 03:26:00,43.6,40.3,30.15,North,360,0.0,0.0,88,0.00,,,0.00,0.0,custom,2013-03-05 11:26:00,
2013-03-05 03:31:00,43.6,40.3,30.15,North,360,0.0,0.0,88,0.00,,,0.00,0.0,custom,2013-03-05 11:31:00,
2013-03-05 03:36:00,43.7,40.4,30.15,North,360,0.0,0.0,88,0.00,,,0.00,0.0,custom,2013-03-05 11:36:00,
2013-03-05 03:41:00,43.7,40.4,30.15,North,360,0.0,0.0,88,0.00,,,0.00,0.0,custom,2013-03-05 11:41:00,
2013-03-05 03:46:00,43.8,40.5,30.15,North,360,0.0,0.0,88,0.00,,,0.00,0.0,custom,2013-03-05 11:46:00,
2013-03-05 03:51:00,43.9,40.6,30.15,North,360,0.0,0.0,88,0.00,,,0.00,0.0,custom,2013-03-05 11:51:00,
2013-03-05 03:56:00,44.0,40.7,30.14,North,360,0.0,0.0,88,0.00,,,0.00,0.0,custom,2013-03-05 11:56:00,
2013-03-05 04:01:00,44.2,40.9,30.15,North,360,0.0,0.0,88,0.00,,,0.00,0.0,custom,2013-03-05 12:01:00,
2013-03-05 04:06:00,44.3,41.0,30.15,North,360,0.0,0.0,88,0.00,,,0.00,0.0,custom,2013-03-05 12:06:00,
2013-03-05 04:11:00,44.4,41.1,30.15,North,360,0.0,0.0,88,0.00,,,0.00,0.0,custom,2013-03-05 12:11:00,
2013-03-05 04:16:00,44.5,41.2,30.15,North,360,0.0,0.0,88,0.00,,,0.00,0.0,custom,2013-03-05 12:16:00,
2013-03-05 04:21:00,44.6,41.0,30.15,North,360,0.0,0.0,87,0.00,,,0.00,0.0,custom,2013-03-05 12:21:00,
2013-03-05 04:26:00,44.7,41.1,30.14,North,360,0.0,0.0,87,0.00,,,0.00,0.0,custom,2013-03-05 12:26:00,
2013-03-05 04:31:00,44.9,41.0,30.15,North,360,0.0,0.0,86,0.00,,,0.00,0.0,custom,2013-03-05 12:31:00,
2013-03-05 04:36:00,45.0,41.1,30.14,North,360,0.0,0.0,86,0.00,,,0.00,0.0,custom,2013-03-05 12:36:00,
2013-03-05 04:41:00,45.0,41.1,30.14,North,360,0.0,0.0,86,0.00,,,0.00,0.0,custom,2013-03-05 12:41:00,
2013-03-05 04:46:00,45.1,41.2,30.14,North,360,0.0,0.0,86,0.00,,,0.00,0.0,custom,2013-03-05 12:46:00,
2013-03-05 04:51:00,45.2,41.3,30.15,North,360,0.0,0.0,86,0.00,,,0.00,0.0,custom,2013-03-05 12:51:00,
2013-03-05 04:56:00,45.4,41.5,30.15,North,360,0.0,0.0,86,0.00,,,0.00,0.0,custom,2013-03-05 12:56:00,
2013-03-05 05:01:00,45.5,41.6,30.15,North,360,0.0,0.0,86,0.00,,,0.00,0.0,custom,2013-03-05 13:01:00,
2013-03-05 05:06:00,45.6,41.7,30.15,North,360,0.0,0.0,86,0.00,,,0.00,0.0,custom,2013-03-05 13:06:00,
2013-03-05 05:11:00,45.6,41.7,30.15,North,360,0.0,0.0,86,0.00,,,0.00,0.0,custom,2013-03-05 13:11:00,
2013-03-05 05:16:00,45.6,41.7,30.15,North,360,0.0,0.0,86,0.00,,,0.00,0.0,custom,2013-03-05 13:16:00,
2013-03-05 05:21:00,45.7,41.8,30.14,North,360,0.0,0.0,86,0.00,,,0.00,0.0,custom,2013-03-05 13:21:00,
2013-03-05 05:26:00,45.7,41.8,30.15,North,360,0.0,0.0,86,0.00,,,0.00,0.0,custom,2013-03-05 13:26:00,
2013-03-05 05:31:00,45.8,41.9,30.15,North,360,0.0,0.0,86,0.00,,,0.00,0.0,custom,2013-03-05 13:31:00,
2013-03-05 05:36:00,45.8,41.6,30.15,North,360,0.0,0.0,85,0.00,,,0.00,0.0,custom,2013-03-05 13:36:00,
2013-03-05 05:41:00,45.8,41.6,30.15,North,360,0.0,0.0,85,0.00,,,0.00,0.0,custom,2013-03-05 13:41:00,
2013-03-05 05:46:00,45.8,41.2,30.15,North,360,0.0,0.0,84,0.00,,,0.00,0.0,custom,2013-03-05 13:46:00,
2013-03-05 05:51:00,45.7,40.8,30.15,SSE,151,0.0,0.0,83,0.00,,,0.00,0.0,custom,2013-03-05 13:51:00,
2013-03-05 05:56:00,45.6,40.4,30.14,South,183,0.0,0.0,82,0.00,,,0.00,0.0,custom,2013-03-05 13:56:00,
2013-03-05 06:01:00,45.6,40.4,30.14,SSE,167,0.0,0.0,82,0.00,,,0.00,0.0,custom,2013-03-05 14:01:00,
2013-03-05 06:06:00,45.4,40.2,30.14,SSE,167,0.0,1.0,82,0.00,,,0.00,0.0,custom,2013-03-05 14:06:00,
2013-03-05 06:11:00,45.3,40.1,30.14,SSE,167,0.0,0.0,82,0.00,,,0.00,0.0,custom,2013-03-05 14:11:00,
2013-03-05 06:16:00,45.1,39.9,30.14,SSE,167,0.0,0.0,82,0.00,,,0.00,0.0,custom,2013-03-05 14:16:00,
2013-03-05 06:21:00,45.0,39.8,30.14,SSE,167,0.0,0.0,82,0.00,,,0.00,0.0,custom,2013-03-05 14:21:00,
2013-03-05 06:26:00,44.7,39.5,30.14,SSE,167,0.0,0.0,82,0.00,,,0.00,0.0,custom,2013-03-05 14:26:00,
2013-03-05 06:31:00,44.5,39.7,30.14,SSE,167,0.0,0.0,83,0.00,,,0.00,0.0,custom,2013-03-05 14:31:00,
2013-03-05 06:36:00,44.3,39.5,30.14,SSE,167,0.0,0.0,83,0.00,,,0.00,0.0,custom,2013-03-05 14:36:00,
2013-03-05 06:41:00,44.2,39.4,30.15,SSE,167,0.0,0.0,83,0.00,,,0.00,7.0,custom,2013-03-05 14:41:00,
2013-03-05 06:46:00,44.1,39.3,30.15,SSE,167,0.0,0.0,83,0.00,,,0.00,11.0,custom,2013-03-05 14:46:00,
2013-03-05 06:51:00,44.0,39.5,30.15,SSE,167,0.0,0.0,84,0.00,,,0.00,21.0,custom,2013-03-05 14:51:00,
2013-03-05 06:56:00,43.9,39.4,30.15,SSE,167,0.0,0.0,84,0.00,,,0.00,30.0,custom,2013-03-05 14:56:00,
2013-03-05 07:01:00,44.0,39.5,30.15,SSE,167,0.0,0.0,84,0.00,,,0.00,39.0,custom,2013-03-05 15:01:00,
2013-03-05 07:06:00,44.0,39.5,30.15,SSE,167,0.0,0.0,84,0.00,,,0.00,40.0,custom,2013-03-05 15:06:00,
2013-03-05 07:11:00,44.1,39.6,30.15,SSE,167,0.0,0.0,84,0.00,,,0.00,40.0,custom,2013-03-05 15:11:00,
2013-03-05 07:16:00,44.2,39.7,30.16,SSE,167,0.0,0.0,84,0.00,,,0.00,77.0,custom,2013-03-05 15:16:00,
2013-03-05 07:21:00,44.3,39.5,30.15,SSE,167,0.0,0.0,83,0.00,,,0.00,98.0,custom,2013-03-05 15:21:00,
2013-03-05 07:26:00,44.7,39.9,30.15,SSE,167,0.0,0.0,83,0.00,,,0.00,88.0,custom,2013-03-05 15:26:00,
2013-03-05 07:31:00,45.0,39.8,30.15,SSE,167,0.0,1.0,82,0.00,,,0.00,76.0,custom,2013-03-05 15:31:00,
2013-03-05 07:36:00,45.4,39.9,30.15,SSE,167,0.0,0.0,81,0.00,,,0.00,104.0,custom,2013-03-05 15:36:00,
2013-03-05 07:41:00,45.8,40.0,30.15,SSE,167,0.0,0.0,80,0.00,,,0.00,160.0,custom,2013-03-05 15:41:00,
2013-03-05 07:46:00,46.4,40.6,30.14,SSE,167,0.0,0.0,80,0.00,,,0.00,193.0,custom,2013-03-05 15:46:00,
2013-03-05 07:51:00,47.0,41.2,30.14,SSE,167,0.0,0.0,80,0.00,,,0.00,206.0,custom,2013-03-05 15:51:00,
2013-03-05 07:56:00,47.6,41.4,30.14,SSE,165,0.0,0.0,79,0.00,,,0.00,216.0,custom,2013-03-05 15:56:00,
2013-03-05 08:01:00,48.3,42.4,30.14,SSE,165,0.0,0.0,80,0.00,,,0.00,156.0,custom,2013-03-05 16:01:00,
2013-03-05 08:06:00,48.8,42.6,30.14,SSE,164,0.0,0.0,79,0.00,,,0.00,197.0,custom,2013-03-05 16:06:00,
2013-03-05 08:11:00,49.0,42.4,30.14,East,99,0.0,0.0,78,0.00,,,0.00,91.0,custom,2013-03-05 16:11:00,
2013-03-05 08:16:00,49.2,42.6,30.13,NE,38,0.0,1.0,78,0.00,,,0.00,116.0,custom,2013-03-05 16:16:00,
2013-03-05 08:21:00,49.2,42.6,30.13,ENE,75,1.0,0.0,78,0.00,,,0.00,162.0,custom,2013-03-05 16:21:00,
2013-03-05 08:26:00,49.5,42.9,30.13,SE,140,0.0,0.0,78,0.00,,,0.00,144.0,custom,2013-03-05 16:26:00,
2013-03-05 08:31:00,49.9,43.3,30.14,SE,138,0.0,0.0,78,0.00,,,0.00,274.0,custom,2013-03-05 16:31:00,
2013-03-05 08:36:00,50.1,42.8,30.13,South,174,0.0,3.0,76,0.00,,,0.00,214.0,custom,2013-03-05 16:36:00,
2013-03-05 08:41:00,50.2,42.6,30.13,SSE,159,1.0,0.0,75,0.00,,,0.00,156.0,custom,2013-03-05 16:41:00,
2013-03-05 08:46:00,50.5,42.5,30.13,SW,219,1.0,0.0,74,0.00,,,0.00,174.0,custom,2013-03-05 16:46:00,
2013-03-05 08:51:00,50.8,42.5,30.13,East,96,0.0,0.0,73,0.00,,,0.00,144.0,custom,2013-03-05 16:51:00,
2013-03-05 08:56:00,51.2,42.1,30.12,East,95,0.0,1.0,71,0.00,,,0.00,102.0,custom,2013-03-05 16:56:00,
2013-03-05 09:01:00,51.4,41.9,30.12,East,82,0.0,0.0,70,0.00,,,0.00,142.0,custom,2013-03-05 17:01:00,
2013-03-05 09:06:00,51.6,41.4,30.12,East,95,0.0,0.0,68,0.00,,,0.00,306.0,custom,2013-03-05 17:06:00,
2013-03-05 09:11:00,51.9,41.3,30.12,ESE,120,0.0,0.0,67,0.00,,,0.00,329.0,custom,2013-03-05 17:11:00,
2013-03-05 09:16:00,52.2,41.2,30.12,ESE,105,1.0,1.0,66,0.00,,,0.00,202.0,custom,2013-03-05 17:16:00,
2013-03-05 09:21:00,52.4,41.4,30.12,ESE,114,1.0,0.0,66,0.00,,,0.00,492.0,custom,2013-03-05 17:21:00,
2013-03-05 09:26:00,52.8,41.8,30.11,East,101,1.0,0.0,66,0.00,,,0.00,510.0,custom,2013-03-05 17:26:00,
2013-03-05 09:31:00,53.4,41.1,30.11,ENE,73,0.0,0.0,63,0.00,,,0.00,411.0,custom,2013-03-05 17:31:00,
2013-03-05 09:36:00,54.0,41.3,30.11,ESE,103,1.0,0.0,62,0.00,,,0.00,91.0,custom,2013-03-05 17:36:00,
2013-03-05 09:41:00,54.4,40.8,30.11,South,186,1.0,1.0,60,0.00,,,0.00,570.0,custom,2013-03-05 17:41:00,
2013-03-05 09:46:00,54.7,41.1,30.11,South,177,1.0,0.0,60,0.00,,,0.00,594.0,custom,2013-03-05 17:46:00,
2013-03-05 09:51:00,55.0,40.9,30.11,East,86,0.0,0.0,59,0.00,,,0.00,587.0,custom,2013-03-05 17:51:00,
2013-03-05 09:56:00,55.3,41.2,30.11,SE,133,0.0,0.0,59,0.00,,,0.00,575.0,custom,2013-03-05 17:56:00,
2013-03-05 10:01:00,55.7,41.6,30.11,ENE,63,1.0,1.0,59,0.00,,,0.00,584.0,custom,2013-03-05 18:01:00,
2013-03-05 10:06:00,56.1,41.5,30.11,SE,126,1.0,0.0,58,0.00,,,0.00,566.0,custom,2013-03-05 18:06:00,
2013-03-05 10:11:00,56.0,40.5,30.11,ESE,106,1.0,1.0,56,0.00,,,0.00,587.0,custom,2013-03-05 18:11:00,
2013-03-05 10:16:00,56.0,41.0,30.11,North,355,1.0,0.0,57,0.00,,,0.00,608.0,custom,2013-03-05 18:16:00,
2013-03-05 10:21:00,56.7,41.6,30.11,East,79,1.0,2.0,57,0.00,,,0.00,622.0,custom,2013-03-05 18:21:00,
2013-03-05 10:26:00,57.3,41.7,30.11,East,84,0.0,1.0,56,0.00,,,0.00,580.0,custom,2013-03-05 18:26:00,
2013-03-05 10:31:00,57.1,41.6,30.11,ENE,76,1.0,1.0,56,0.00,,,0.00,635.0,custom,2013-03-05 18:31:00,
2013-03-05 10:36:00,57.1,42.0,30.11,ENE,78,1.0,2.0,57,0.00,,,0.00,659.0,custom,2013-03-05 18:36:00,
2013-03-05 10:41:00,57.3,41.7,30.10,East,88,1.0,0.0,56,0.00,,,0.00,684.0,custom,2013-03-05 18:41:00,
2013-03-05 10:46:00,57.7,41.6,30.10,NNE,13,0.0,0.0,55,0.00,,,0.00,693.0,custom,2013-03-05 18:46:00,
2013-03-05 10:51:00,58.1,42.5,30.10,NNW,330,1.0,0.0,56,0.00,,,0.00,698.0,custom,2013-03-05 18:51:00,
2013-03-05 10:56:00,58.5,42.4,30.10,NE,46,1.0,0.0,55,0.00,,,0.00,654.0,custom,2013-03-05 18:56:00,
2013-03-05 11:01:00,59.0,42.9,30.09,SE,140,0.0,1.0,55,0.00,,,0.00,654.0,custom,2013-03-05 19:01:00,
2013-03-05 11:06:00,59.5,42.8,30.09,ESE,117,1.0,0.0,54,0.00,,,0.00,696.0,custom,2013-03-05 19:06:00,
2013-03-05 11:11:00,59.6,42.4,30.09,NNW,327,1.0,2.0,53,0.00,,,0.00,691.0,custom,2013-03-05 19:11:00,
2013-03-05 11:16:00,59.6,42.4,30.09,North,5,1.0,3.0,53,0.00,,,0.00,708.0,custom,2013-03-05 19:16:00,
2013-03-05 11:21:00,60.1,42.9,30.09,North,355,1.0,3.0,53,0.00,,,0.00,708.0,custom,2013-03-05 19:21:00,
2013-03-05 11:26:00,60.8,43.1,30.09,SSW,194,1.0,0.0,52,0.00,,,0.00,708.0,custom,2013-03-05 19:26:00,
2013-03-05 11:31:00,61.2,43.4,30.08,ESE,105,1.0,2.0,52,0.00,,,0.00,729.0,custom,2013-03-05 19:31:00,
2013-03-05 11:36:00,61.5,42.2,30.08,South,188,1.0,2.0,49,0.00,,,0.00,742.0,custom,2013-03-05 19:36:00,
2013-03-05 11:41:00,62.0,42.6,30.08,SSW,193,1.0,1.0,49,0.00,,,0.00,756.0,custom,2013-03-05 19:41:00,
2013-03-05 11:46:00,62.4,43.5,30.08,South,187,1.0,4.0,50,0.00,,,0.00,684.0,custom,2013-03-05 19:46:00,
2013-03-05 11:51:00,62.9,43.4,30.08,WSW,238,1.0,0.0,49,0.00,,,0.00,751.0,custom,2013-03-05 19:51:00,
2013-03-05 11:56:00,63.0,44.1,30.07,WNW,285,1.0,1.0,50,0.00,,,0.00,744.0,custom,2013-03-05 19:56:00,
2013-03-05 12:01:00,63.2,44.2,30.07,SW,225,1.0,0.0,50,0.00,,,0.00,751.0,custom,2013-03-05 20:01:00,
2013-03-05 12:11:00,63.4,43.9,30.07,SSW,194,1.0,4.0,49,0.00,,,0.00,807.0,custom,2013-03-05 20:11:00,
2013-03-05 12:16:00,62.9,44.0,30.07,South,180,2.0,0.0,50,0.00,,,0.00,816.0,custom,2013-03-05 20:16:00,
2013-03-05 12:21:00,62.6,44.2,30.06,South,183,1.0,2.0,51,0.00,,,0.00,802.0,custom,2013-03-05 20:21:00,
2013-03-05 12:26:00,62.8,44.4,30.06,West,259,1.0,1.0,51,0.00,,,0.00,765.0,custom,2013-03-05 20:26:00,
2013-03-05 12:31:00,62.5,43.6,30.06,West,263,1.0,0.0,50,0.00,,,0.00,768.0,custom,2013-03-05 20:31:00,
2013-03-05 12:36:00,62.0,44.2,30.06,SSW,195,1.0,1.0,52,0.00,,,0.00,761.0,custom,2013-03-05 20:36:00,
2013-03-05 12:41:00,62.0,43.7,30.05,SW,215,1.0,0.0,51,0.00,,,0.00,721.0,custom,2013-03-05 20:41:00,
2013-03-05 12:46:00,62.0,44.2,30.05,SSW,200,1.0,1.0,52,0.00,,,0.00,754.0,custom,2013-03-05 20:46:00,
2013-03-05 12:51:00,62.2,43.8,30.05,South,176,1.0,3.0,51,0.00,,,0.00,744.0,custom,2013-03-05 20:51:00,
2013-03-05 12:56:00,62.2,43.8,30.05,SSW,193,2.0,2.0,51,0.00,,,0.00,721.0,custom,2013-03-05 20:56:00,
2013-03-05 13:01:00,62.2,43.8,30.05,SW,233,2.0,3.0,51,0.00,,,0.00,740.0,custom,2013-03-05 21:01:00,
2013-03-05 13:06:00,62.4,44.5,30.05,SW,232,1.0,2.0,52,0.00,,,0.00,744.0,custom,2013-03-05 21:06:00,
2013-03-05 13:11:00,62.2,43.3,30.04,SW,230,2.0,2.0,50,0.00,,,0.00,726.0,custom,2013-03-05 21:11:00,
2013-03-05 13:16:00,62.0,44.2,30.04,WSW,245,3.0,3.0,52,0.00,,,0.00,735.0,custom,2013-03-05 21:16:00,
2013-03-05 13:21:00,61.7,43.4,30.04,South,191,2.0,5.0,51,0.00,,,0.00,722.0,custom,2013-03-05 21:21:00,
2013-03-05 13:26:00,61.6,43.3,30.04,WSW,246,2.0,2.0,51,0.00,,,0.00,700.0,custom,2013-03-05 21:26:00,
2013-03-05 13:31:00,61.8,43.0,30.04,SSE,163,2.0,2.0,50,0.00,,,0.00,707.0,custom,2013-03-05 21:31:00,
2013-03-05 13:36:00,61.6,42.8,30.03,SSE,149,2.0,2.0,50,0.00,,,0.00,694.0,custom,2013-03-05 21:36:00,
2013-03-05 13:41:00,61.4,42.1,30.03,South,169,2.0,2.0,49,0.00,,,0.00,687.0,custom,2013-03-05 21:41:00,
2013-03-05 13:46:00,61.1,42.3,30.03,SE,143,3.0,3.0,50,0.00,,,0.00,677.0,custom,2013-03-05 21:46:00,
2013-03-05 13:51:00,60.7,42.5,30.03,SE,140,3.0,13.0,51,0.00,,,0.00,666.0,custom,2013-03-05 21:51:00,
2013-03-05 13:56:00,60.2,42.5,30.03,South,181,2.0,6.0,52,0.00,,,0.00,657.0,custom,2013-03-05 21:56:00,
2013-03-05 14:01:00,60.4,42.7,30.03,SSE,150,2.0,5.0,52,0.00,,,0.00,642.0,custom,2013-03-05 22:01:00,
2013-03-05 14:06:00,60.4,42.7,30.03,SW,225,3.0,4.0,52,0.00,,,0.00,635.0,custom,2013-03-05 22:06:00,
2013-03-05 14:11:00,60.3,42.1,30.03,SW,233,3.0,6.0,51,0.00,,,0.00,626.0,custom,2013-03-05 22:11:00,
2013-03-05 14:16:00,60.3,42.1,30.03,South,191,3.0,3.0,51,0.00,,,0.00,610.0,custom,2013-03-05 22:16:00,
2013-03-05 14:21:00,60.4,42.7,30.03,SSW,194,3.0,0.0,52,0.00,,,0.00,601.0,custom,2013-03-05 22:21:00,
2013-03-05 14:26:00,60.4,42.7,30.03,SE,135,3.0,3.0,52,0.00,,,0.00,584.0,custom,2013-03-05 22:26:00,
2013-03-05 14:31:00,60.2,42.5,30.03,SSW,194,2.0,3.0,52,0.00,,,0.00,578.0,custom,2013-03-05 22:31:00,
2013-03-05 14:36:00,60.0,42.3,30.03,SSW,206,2.0,2.0,52,0.00,,,0.00,571.0,custom,2013-03-05 22:36:00,
2013-03-05 14:41:00,59.9,42.2,30.02,WSW,238,2.0,3.0,52,0.00,,,0.00,557.0,custom,2013-03-05 22:41:00,
2013-03-05 14:46:00,59.5,42.4,30.03,South,174,2.0,9.0,53,0.00,,,0.00,160.0,custom,2013-03-05 22:46:00,
2013-03-05 14:51:00,59.0,41.9,30.02,SSW,194,2.0,5.0,53,0.00,,,0.00,364.0,custom,2013-03-05 22:51:00,
2013-03-05 14:56:00,59.0,42.4,30.02,South,169,2.0,7.0,54,0.00,,,0.00,120.0,custom,2013-03-05 22:56:00,
2013-03-05 15:01:00,59.0,41.9,30.02,SW,233,3.0,3.0,53,0.00,,,0.00,153.0,custom,2013-03-05 23:01:00,
2013-03-05 15:06:00,58.9,41.8,30.02,South,175,3.0,3.0,53,0.00,,,0.00,399.0,custom,2013-03-05 23:06:00,
2013-03-05 15:11:00,58.5,41.9,30.02,SW,215,2.0,0.0,54,0.00,,,0.00,113.0,custom,2013-03-05 23:11:00,
2013-03-05 15:16:00,58.4,41.8,30.02,South,180,2.0,3.0,54,0.00,,,0.00,111.0,custom,2013-03-05 23:16:00,
2013-03-05 15:21:00,58.3,41.7,30.02,SSE,167,2.0,0.0,54,0.00,,,0.00,359.0,custom,2013-03-05 23:21:00,
2013-03-05 15:26:00,58.2,42.1,30.03,South,189,2.0,4.0,55,0.00,,,0.00,134.0,custom,2013-03-05 23:26:00,
2013-03-05 15:31:00,58.2,42.1,30.03,SSW,211,1.0,0.0,55,0.00,,,0.00,70.0,custom,2013-03-05 23:31:00,
2013-03-05 15:36:00,58.4,42.3,30.03,South,189,1.0,5.0,55,0.00,,,0.00,218.0,custom,2013-03-05 23:36:00,
2013-03-05 15:41:00,58.3,42.2,30.02,South,169,1.0,0.0,55,0.00,,,0.00,304.0,custom,2013-03-05 23:41:00,
2013-03-05 15:46:00,58.1,42.0,30.02,WSW,241,1.0,0.0,55,0.00,,,0.00,111.0,custom,2013-03-05 23:46:00,
2013-03-05 15:51:00,57.9,41.8,30.02,WSW,250,2.0,2.0,55,0.00,,,0.00,51.0,custom,2013-03-05 23:51:00,
2013-03-05 15:56:00,57.5,41.9,30.02,South,176,2.0,2.0,56,0.00,,,0.00,47.0,custom,2013-03-05 23:56:00,
2013-03-05 16:01:00,57.3,42.2,30.01,SSE,158,2.0,2.0,57,0.00,,,0.00,95.0,custom,2013-03-06 00:01:00,
2013-03-05 16:06:00,57.0,41.9,30.02,SW,234,2.0,2.0,57,0.00,,,0.00,62.0,custom,2013-03-06 00:06:00,
2013-03-05 16:11:00,56.9,42.3,30.01,WSW,245,2.0,0.0,58,0.00,,,0.00,69.0,custom,2013-03-06 00:11:00,
2013-03-05 16:16:00,56.9,42.3,30.01,South,178,2.0,2.0,58,0.00,,,0.00,95.0,custom,2013-03-06 00:16:00,
2013-03-05 16:21:00,56.7,42.1,30.01,SSW,207,2.0,2.0,58,0.00,,,0.00,62.0,custom,2013-03-06 00:21:00,
2013-03-05 16:26:00,56.5,42.3,30.01,South,171,2.0,5.0,59,0.00,,,0.00,209.0,custom,2013-03-06 00:26:00,
2013-03-05 16:31:00,56.3,42.2,30.00,SSW,207,2.0,0.0,59,0.00,,,0.00,172.0,custom,2013-03-06 00:31:00,
2013-03-05 16:36:00,56.2,42.1,30.00,South,175,2.0,2.0,59,0.00,,,0.00,100.0,custom,2013-03-06 00:36:00,
2013-03-05 16:41:00,56.0,42.3,30.00,SW,225,2.0,3.0,60,0.00,,,0.00,95.0,custom,2013-03-06 00:41:00,
2013-03-05 16:46:00,55.6,41.9,30.00,South,191,3.0,0.0,60,0.00,,,0.00,81.0,custom,2013-03-06 00:46:00,
2013-03-05 16:51:00,55.3,42.1,29.99,South,186,3.0,4.0,61,0.00,,,0.00,33.0,custom,2013-03-06 00:51:00,
2013-03-05 16:56:00,55.0,41.8,29.99,SW,225,2.0,0.0,61,0.00,,,0.00,30.0,custom,2013-03-06 00:56:00,
2013-03-05 17:06:00,54.4,41.7,29.99,South,183,2.0,2.0,62,0.00,,,0.00,25.0,custom,2013-03-06 01:06:00,
2013-03-05 17:11:00,54.2,41.5,29.99,SSW,201,2.0,0.0,62,0.00,,,0.00,26.0,custom,2013-03-06 01:11:00,
2013-03-05 17:16:00,54.1,41.4,29.98,SE,145,1.0,1.0,62,0.00,,,0.00,28.0,custom,2013-03-06 01:16:00,
2013-03-05 17:21:00,54.0,41.3,29.98,West,269,1.0,5.0,62,0.00,,,0.00,28.0,custom,2013-03-06 01:21:00,
2013-03-05 17:26:00,54.0,41.3,29.98,SSE,161,2.0,9.0,62,0.00,,,0.00,28.0,custom,2013-03-06 01:26:00,
2013-03-05 17:36:00,53.8,41.1,29.97,WSW,248,2.0,2.0,62,0.00,,,0.00,30.0,custom,2013-03-06 01:36:00,
2013-03-05 17:46:00,53.8,41.1,29.97,SW,222,2.0,2.0,62,0.00,,,0.00,23.0,custom,2013-03-06 01:46:00,
2013-03-05 17:51:00,53.7,41.4,29.97,South,186,2.0,2.0,63,0.00,,,0.00,21.0,custom,2013-03-06 01:51:00,
2013-03-05 18:01:00,53.4,41.1,29.96,SSW,203,1.0,4.0,63,0.00,,,0.00,7.0,custom,2013-03-06 02:01:00,
2013-03-05 18:06:00,53.3,41.0,29.96,South,177,1.0,0.0,63,0.00,,,0.00,7.0,custom,2013-03-06 02:06:00,
2013-03-05 18:11:00,53.2,40.9,29.96,WSW,248,2.0,0.0,63,0.00,,,0.00,0.0,custom,2013-03-06 02:11:00,
2013-03-05 18:16:00,53.1,41.2,29.96,SSE,161,2.0,0.0,64,0.00,,,0.00,0.0,custom,2013-03-06 02:16:00,
2013-03-05 18:21:00,53.0,41.2,29.97,South,169,2.0,3.0,64,0.00,,,0.00,0.0,custom,2013-03-06 02:21:00,
2013-03-05 18:26:00,52.8,41.4,29.97,SSW,198,1.0,4.0,65,0.00,,,0.00,0.0,custom,2013-03-06 02:26:00,
2013-03-05 18:31:00,52.7,41.3,29.97,South,174,1.0,0.0,65,0.00,,,0.00,0.0,custom,2013-03-06 02:31:00,
2013-03-05 18:36:00,52.6,41.6,29.97,SSE,152,2.0,0.0,66,0.00,,,0.00,0.0,custom,2013-03-06 02:36:00,
2013-03-05 18:41:00,52.5,41.5,29.98,SSE,157,2.0,2.0,66,0.00,,,0.00,0.0,custom,2013-03-06 02:41:00,
2013-03-05 18:51:00,52.3,41.7,29.97,SSE,168,1.0,1.0,67,0.00,,,0.00,0.0,custom,2013-03-06 02:51:00,
2013-03-05 18:56:00,52.3,41.7,29.97,ENE,59,1.0,1.0,67,0.00,,,0.00,0.0,custom,2013-03-06 02:56:00,
2013-03-05 19:01:00,52.3,41.7,29.98,SSE,159,1.0,0.0,67,0.00,,,0.00,0.0,custom,2013-03-06 03:01:00,
2013-03-05 19:11:00,52.3,42.1,29.98,South,173,1.0,0.0,68,0.00,,,0.00,0.0,custom,2013-03-06 03:11:00,
2013-03-05 19:16:00,52.3,42.1,29.98,South,169,1.0,2.0,68,0.00,,,0.00,0.0,custom,2013-03-06 03:16:00,
2013-03-05 19:21:00,52.3,42.1,29.98,East,100,1.0,0.0,68,0.00,,,0.00,0.0,custom,2013-03-06 03:21:00,
2013-03-05 19:26:00,52.2,42.0,29.97,SSE,155,0.0,0.0,68,0.00,,,0.00,0.0,custom,2013-03-06 03:26:00,
2013-03-05 19:36:00,52.2,42.3,29.97,SE,132,1.0,1.0,69,0.00,,,0.00,0.0,custom,2013-03-06 03:36:00,
2013-03-05 19:46:00,52.1,42.2,29.97,East,85,1.0,1.0,69,0.00,,,0.00,0.0,custom,2013-03-06 03:46:00,
2013-03-05 19:51:00,52.0,42.1,29.97,NE,48,1.0,0.0,69,0.00,,,0.00,0.0,custom,2013-03-06 03:51:00,
2013-03-05 19:56:00,51.9,42.1,29.97,SE,142,1.0,0.0,69,0.00,,,0.00,0.0,custom,2013-03-06 03:56:00,
2013-03-05 20:01:00,51.9,42.4,29.97,SSW,211,1.0,2.0,70,0.00,,,0.00,0.0,custom,2013-03-06 04:01:00,
2013-03-05 20:06:00,51.8,42.3,29.97,SSW,200,2.0,0.0,70,0.00,,,0.00,0.0,custom,2013-03-06 04:06:00,
2013-03-05 20:11:00,51.8,42.3,29.96,North,360,2.0,0.0,70,0.00,,,0.00,0.0,custom,2013-03-06 04:11:00,
2013-03-05 20:21:00,51.7,42.6,29.96,East,96,1.0,1.0,71,0.00,,,0.00,0.0,custom,2013-03-06 04:21:00,
2013-03-05 20:26:00,51.7,42.6,29.97,East,80,2.0,0.0,71,0.00,,,0.00,0.0,custom,2013-03-06 04:26:00,
2013-03-05 20:31:00,51.7,42.6,29.96,ENE,69,1.0,0.0,71,0.00,,,0.00,0.0,custom,2013-03-06 04:31:00,
2013-03-05 20:41:00,51.7,42.6,29.96,SE,139,1.0,0.0,71,0.00,,,0.00,0.0,custom,2013-03-06 04:41:00,
2013-03-05 20:46:00,51.7,42.6,29.95,East,88,1.0,1.0,71,0.00,,,0.00,0.0,custom,2013-03-06 04:46:00,
2013-03-05 20:51:00,51.7,42.6,29.95,SE,136,1.0,5.0,71,0.00,,,0.00,0.0,custom,2013-03-06 04:51:00,
2013-03-05 20:56:00,51.7,42.6,29.95,SE,126,1.0,0.0,71,0.00,,,0.00,0.0,custom,2013-03-06 04:56:00,
2013-03-05 21:01:00,51.7,42.6,29.95,SSW,194,1.0,0.0,71,0.00,,,0.00,0.0,custom,2013-03-06 05:01:00,
2013-03-05 21:06:00,51.7,42.6,29.95,ESE,121,1.0,1.0,71,0.00,,,0.00,0.0,custom,2013-03-06 05:06:00,
2013-03-05 21:11:00,51.7,42.6,29.96,East,88,2.0,2.0,71,0.00,,,0.00,0.0,custom,2013-03-06 05:11:00,
2013-03-05 21:16:00,51.7,43.3,29.96,South,175,1.0,0.0,73,0.00,,,0.00,0.0,custom,2013-03-06 05:16:00,
2013-03-05 21:21:00,51.6,43.6,29.96,ENE,67,1.0,0.0,74,0.00,,,0.00,0.0,custom,2013-03-06 05:21:00,
2013-03-05 21:26:00,51.5,44.2,29.96,SSW,200,1.0,4.0,76,0.00,,,0.00,0.0,custom,2013-03-06 05:26:00,
2013-03-05 21:31:00,51.3,44.7,29.96,South,190,2.0,0.0,78,0.00,,,0.00,0.0,custom,2013-03-06 05:31:00,
2013-03-05 21:36:00,51.2,45.2,29.96,South,190,1.0,0.0,80,0.00,,,0.01,0.0,custom,2013-03-06 05:36:00,
2013-03-05 21:41:00,51.0,45.4,29.96,East,86,0.0,0.0,81,0.00,,,0.01,0.0,custom,2013-03-06 05:41:00,
2013-03-05 21:46:00,50.7,45.7,29.96,SSE,161,0.0,0.0,83,0.06,,,0.02,0.0,custom,2013-03-06 05:46:00,
2013-03-05 21:51:00,50.4,45.4,29.96,NE,55,0.0,0.0,83,0.14,,,0.04,0.0,custom,2013-03-06 05:51:00,
2013-03-05 21:56:00,50.1,45.5,29.96,SE,139,0.0,0.0,84,0.13,,,0.05,0.0,custom,2013-03-06 05:56:00,
2013-03-05 22:01:00,49.9,45.6,29.96,SSW,199,0.0,0.0,85,0.11,,,0.06,0.0,custom,2013-03-06 06:01:00,
2013-03-05 22:06:00,49.7,45.4,29.96,SSE,167,0.0,0.0,85,0.15,,,0.07,0.0,custom,2013-03-06 06:06:00,
2013-03-05 22:11:00,49.5,45.2,29.95,ENE,67,0.0,0.0,85,0.10,,,0.07,0.0,custom,2013-03-06 06:11:00,
2013-03-05 22:16:00,49.4,45.4,29.95,SE,134,0.0,0.0,86,0.08,,,0.08,0.0,custom,2013-03-06 06:16:00,
2013-03-05 22:21:00,49.3,45.3,29.95,SE,135,0.0,2.0,86,0.07,,,0.08,0.0,custom,2013-03-06 06:21:00,
2013-03-05 22:26:00,49.2,44.9,29.95,SSE,156,1.0,1.0,85,0.04,,,0.08,0.0,custom,2013-03-06 06:26:00,
2013-03-05 22:36:00,49.2,45.2,29.95,SSW,200,1.0,0.0,86,0.00,,,0.08,0.0,custom,2013-03-06 06:36:00,
2013-03-05 22:41:00,49.2,45.2,29.95,ESE,111,1.0,1.0,86,0.00,,,0.08,0.0,custom,2013-03-06 06:41:00,
2013-03-05 22:46:00,49.2,45.2,29.94,SSE,159,0.0,0.0,86,0.00,,,0.08,0.0,custom,2013-03-06 06:46:00,
2013-03-05 22:51:00,49.2,45.2,29.95,SSE,159,0.0,0.0,86,0.00,,,0.08,0.0,custom,2013-03-06 06:51:00,
2013-03-05 22:56:00,49.1,45.1,29.95,SSW,192,0.0,1.0,86,0.00,,,0.08,0.0,custom,2013-03-06 06:56:00,
2013-03-05 23:01:00,49.1,44.8,29.95,ESE,123,1.0,1.0,85,0.00,,,0.08,0.0,custom,2013-03-06 07:01:00,
2013-03-05 23:06:00,49.2,44.9,29.94,SSE,148,1.0,0.0,85,0.00,,,0.08,0.0,custom,2013-03-06 07:06:00,
2013-03-05 23:11:00,49.4,44.8,29.95,South,187,1.0,0.0,84,0.00,,,0.08,0.0,custom,2013-03-06 07:11:00,
2013-03-05 23:16:00,49.6,45.0,29.94,ESE,102,1.0,0.0,84,0.00,,,0.08,0.0,custom,2013-03-06 07:16:00,
2013-03-05 23:21:00,49.6,45.0,29.95,WSW,245,1.0,6.0,84,0.00,,,0.08,0.0,custom,2013-03-06 07:21:00,
2013-03-05 23:26:00,49.9,45.3,29.95,SSE,147,1.0,0.0,84,0.00,,,0.08,0.0,custom,2013-03-06 07:26:00,
2013-03-05 23:31:00,50.0,45.0,29.95,ENE,63,1.0,1.0,83,0.00,,,0.08,0.0,custom,2013-03-06 07:31:00,
2013-03-05 23:36:00,50.2,44.9,29.94,SSE,165,2.0,0.0,82,0.00,,,0.08,0.0,custom,2013-03-06 07:36:00,
2013-03-05 23:41:00,50.3,45.3,29.94,NE,52,1.0,0.0,83,0.00,,,0.08,0.0,custom,2013-03-06 07:41:00,
2013-03-05 23:46:00,50.3,45.3,29.93,ENE,62,2.0,0.0,83,0.00,,,0.08,0.0,custom,2013-03-06 07:46:00,
2013-03-05 23:51:00,50.0,45.4,29.93,South,172,2.0,3.0,84,0.00,,,0.08,0.0,custom,2013-03-06 07:51:00,
2013-03-05 23:56:00,49.7,45.1,29.94,SSE,149,1.0,0.0,84,0.00,,,0.08,0.0,custom,2013-03-06 07:56:00,